Time;durP1;ratioP1;P1;durP2;ratioP2;P2;SDS_P1;SDS_P2;PMS_P1;PMS_P2;Temp;Humidity;BMP_temperature;BMP_pressure;BME280_temperature;BME280_humidity;BME280_pressure;Samples;Min_cycle;Max_cycle;Signal;HPM_P1;HPM_P2
2024/02/14 00:00:13;;;;;;;3.58;2.13;;;;;;;;;;5024131;28;20172;-60
2024/02/14 00:02:42;;;;;;;3.33;2.13;;;;;;;;;;5023246;28;20048;-63
2024/02/14 00:05:11;;;;;;;3.67;1.73;;;;;;;;;;5027366;28;20517;-61
2024/02/14 00:07:39;;;;;;;2.65;1.77;;;;;;;;;;5026786;28;20127;-62
2024/02/14 00:10:08;;;;;;;2.60;1.70;;;;;;;;;;5023926;28;20061;-62
2024/02/14 00:12:37;;;;;;;4.82;2.05;;;;;;;;;;5027670;28;20057;-61
2024/02/14 00:15:07;;;;;;;5.15;1.98;;;;;;;;;;5019782;28;20087;-62
2024/02/14 00:17:37;;;;;;;5.10;2.28;;;;;;;;;;5027003;28;20511;-61
2024/02/14 00:20:06;;;;;;;4.32;2.00;;;;;;;;;;5026855;28;20053;-62
2024/02/14 00:22:34;;;;;;;3.55;2.22;;;;;;;;;;5028111;28;20238;-62
2024/02/14 00:25:03;;;;;;;3.38;2.00;;;;;;;;;;5017273;28;20499;-62
2024/02/14 00:27:31;;;;;;;2.25;2.05;;;;;;;;;;5020753;28;20445;-62
2024/02/14 00:30:00;;;;;;;4.35;2.25;;;;;;;;;;5025544;28;20115;-62
2024/02/14 00:32:28;;;;;;;2.75;1.73;;;;;;;;;;5027273;28;20061;-63
2024/02/14 00:34:58;;;;;;;2.03;1.50;;;;;;;;;;5020590;28;20132;-62
2024/02/14 00:37:28;;;;;;;2.85;1.85;;;;;;;;;;5027414;28;20053;-62
2024/02/14 00:39:57;;;;;;;3.05;1.80;;;;;;;;;;5027559;28;20069;-63
2024/02/14 00:42:26;;;;;;;2.75;2.05;;;;;;;;;;5026613;28;20045;-62
2024/02/14 00:44:55;;;;;;;3.15;1.90;;;;;;;;;;5022816;28;20049;-63
2024/02/14 00:47:23;;;;;;;2.88;1.77;;;;;;;;;;5026987;28;20499;-61
2024/02/14 00:49:52;;;;;;;4.85;1.73;;;;;;;;;;5027150;28;20049;-61
2024/02/14 00:52:22;;;;;;;4.47;1.73;;;;;;;;;;5027989;28;20045;-62
2024/02/14 00:54:50;;;;;;;4.43;2.20;;;;;;;;;;5022228;28;20053;-63
2024/02/14 00:57:19;;;;;;;2.90;1.75;;;;;;;;;;5021834;28;20099;-60
2024/02/14 00:59:47;;;;;;;2.28;1.75;;;;;;;;;;5023365;28;20453;-60
2024/02/14 01:02:16;;;;;;;1.75;1.50;;;;;;;;;;5024998;28;20045;-60
2024/02/14 01:04:44;;;;;;;1.75;1.30;;;;;;;;;;5030438;28;20096;-60
2024/02/14 01:07:12;;;;;;;2.47;1.83;;;;;;;;;;5030229;28;20115;-60
2024/02/14 01:09:42;;;;;;;2.67;1.63;;;;;;;;;;5030252;28;20064;-60
2024/02/14 01:12:11;;;;;;;3.40;1.60;;;;;;;;;;5034573;28;20132;-61
2024/02/14 01:14:39;;;;;;;3.33;1.58;;;;;;;;;;5031535;28;20599;-60
2024/02/14 01:17:08;;;;;;;3.70;1.42;;;;;;;;;;5030510;28;20045;-60
2024/02/14 01:19:36;;;;;;;2.40;1.35;;;;;;;;;;5029133;28;20049;-61
2024/02/14 01:22:05;;;;;;;3.53;1.27;;;;;;;;;;5022139;28;20041;-60
2024/02/14 01:24:33;;;;;;;1.52;1.38;;;;;;;;;;5018911;28;20046;-60
2024/02/14 01:27:03;;;;;;;1.77;1.13;;;;;;;;;;5025316;28;20103;-60
2024/02/14 01:29:32;;;;;;;1.40;1.30;;;;;;;;;;5029345;28;20049;-60
2024/02/14 01:32:00;;;;;;;1.80;1.35;;;;;;;;;;5029212;28;20129;-60
2024/02/14 01:34:29;;;;;;;2.53;1.27;;;;;;;;;;5028964;28;20041;-60
2024/02/14 01:36:57;;;;;;;2.35;1.30;;;;;;;;;;5029988;28;20049;-60
2024/02/14 01:39:26;;;;;;;3.00;1.40;;;;;;;;;;5030480;28;20041;-60
2024/02/14 01:41:54;;;;;;;2.17;1.38;;;;;;;;;;5031064;28;20057;-59
2024/02/14 01:44:24;;;;;;;1.80;1.02;;;;;;;;;;5027738;28;20145;-60
2024/02/14 01:46:52;;;;;;;1.95;1.05;;;;;;;;;;5029702;28;20046;-61
2024/02/14 01:49:21;;;;;;;1.85;1.27;;;;;;;;;;5030145;28;20483;-60
2024/02/14 01:51:50;;;;;;;1.92;1.35;;;;;;;;;;5029671;28;20072;-60
2024/02/14 01:54:19;;;;;;;1.50;1.30;;;;;;;;;;5021689;28;20060;-62
2024/02/14 01:56:47;;;;;;;2.42;1.25;;;;;;;;;;5029790;28;20076;-59
2024/02/14 01:59:16;;;;;;;1.33;1.23;;;;;;;;;;5029637;28;20537;-60
2024/02/14 02:01:46;;;;;;;2.50;1.30;;;;;;;;;;5028408;28;20119;-60
2024/02/14 02:04:14;;;;;;;2.55;1.50;;;;;;;;;;5027450;28;20497;-59
2024/02/14 02:06:43;;;;;;;3.00;1.40;;;;;;;;;;5028812;28;20064;-60
2024/02/14 02:09:11;;;;;;;4.97;1.30;;;;;;;;;;5028205;28;20045;-59
2024/02/14 02:11:50;;;;;;;3.13;1.75;;;;;;;;;;5029519;28;20374;-59
2024/02/14 02:14:19;;;;;;;2.33;1.38;;;;;;;;;;5024679;28;20049;-60
2024/02/14 02:16:49;;;;;;;1.63;1.50;;;;;;;;;;5023507;28;20077;-59
2024/02/14 02:19:17;;;;;;;2.17;1.20;;;;;;;;;;5016407;28;20053;-61
2024/02/14 02:21:46;;;;;;;1.42;1.08;;;;;;;;;;5025043;28;20050;-60
2024/02/14 02:24:16;;;;;;;1.52;1.10;;;;;;;;;;5026882;28;20127;-60
2024/02/14 02:26:44;;;;;;;2.08;1.10;;;;;;;;;;5028165;28;20424;-60
2024/02/14 02:29:15;;;;;;;1.98;1.08;;;;;;;;;;5022616;28;20124;-60
2024/02/14 02:31:43;;;;;;;1.92;1.10;;;;;;;;;;5019211;28;20072;-60
2024/02/14 02:34:12;;;;;;;1.83;1.15;;;;;;;;;;5027832;28;20095;-60
2024/02/14 02:36:41;;;;;;;1.85;1.23;;;;;;;;;;5022861;28;20407;-60
2024/02/14 02:39:10;;;;;;;1.27;1.00;;;;;;;;;;5027033;28;20081;-59
2024/02/14 02:41:40;;;;;;;1.10;1.00;;;;;;;;;;5028975;28;20064;-60
2024/02/14 02:44:08;;;;;;;1.40;1.30;;;;;;;;;;5024178;28;20099;-60
2024/02/14 02:46:36;;;;;;;1.38;1.02;;;;;;;;;;5020585;28;20042;-63
2024/02/14 02:49:05;;;;;;;1.73;1.10;;;;;;;;;;5026733;28;20041;-60
2024/02/14 02:51:34;;;;;;;1.40;1.00;;;;;;;;;;5027643;28;20041;-60
2024/02/14 02:54:02;;;;;;;1.50;1.02;;;;;;;;;;5027306;28;20134;-60
2024/02/14 02:56:33;;;;;;;1.65;1.20;;;;;;;;;;5029467;28;20136;-59
2024/02/14 02:59:04;;;;;;;1.40;0.93;;;;;;;;;;5016513;28;20050;-59
2024/02/14 03:01:36;;;;;;;1.00;0.90;;;;;;;;;;5024951;28;20349;-60
2024/02/14 03:04:05;;;;;;;1.10;1.00;;;;;;;;;;5026783;28;20068;-59
2024/02/14 03:06:33;;;;;;;1.50;1.20;;;;;;;;;;5027170;28;20049;-59
2024/02/14 03:09:02;;;;;;;1.50;1.00;;;;;;;;;;5025371;28;20057;-59
2024/02/14 03:11:30;;;;;;;1.55;1.00;;;;;;;;;;5027792;28;20045;-60
2024/02/14 03:13:59;;;;;;;1.52;1.02;;;;;;;;;;5002804;28;20510;-60
2024/02/14 03:16:29;;;;;;;3.83;1.20;;;;;;;;;;4999855;28;20619;-59
2024/02/14 03:18:58;;;;;;;1.80;1.10;;;;;;;;;;5002788;28;20057;-64
2024/02/14 03:21:27;;;;;;;4.03;0.95;;;;;;;;;;5028385;28;20099;-60
2024/02/14 03:23:55;;;;;;;2.88;1.25;;;;;;;;;;5020272;28;20041;-60
2024/02/14 03:26:24;;;;;;;1.15;0.98;;;;;;;;;;5027993;28;20072;-60
2024/02/14 03:28:53;;;;;;;1.63;1.10;;;;;;;;;;5025607;28;20561;-59
2024/02/14 03:31:21;;;;;;;1.35;1.05;;;;;;;;;;5027546;28;20045;-60
2024/02/14 03:33:51;;;;;;;1.23;0.95;;;;;;;;;;5023283;28;20053;-60
2024/02/14 03:36:20;;;;;;;1.40;0.98;;;;;;;;;;5025294;28;20049;-59
2024/02/14 03:38:48;;;;;;;1.63;1.08;;;;;;;;;;5021474;28;20128;-60
2024/02/14 03:41:17;;;;;;;1.27;1.17;;;;;;;;;;5025104;28;20128;-60
2024/02/14 03:43:45;;;;;;;2.42;1.15;;;;;;;;;;5028602;28;20057;-60
2024/02/14 03:46:14;;;;;;;1.25;1.10;;;;;;;;;;5027078;28;20045;-61
2024/02/14 03:48:44;;;;;;;1.20;1.10;;;;;;;;;;5026436;28;20172;-60
2024/02/14 03:51:16;;;;;;;1.80;1.08;;;;;;;;;;5027739;28;20099;-60
2024/02/14 03:53:44;;;;;;;1.13;0.90;;;;;;;;;;5026459;28;20107;-59
2024/02/14 03:56:14;;;;;;;0.93;0.80;;;;;;;;;;5025571;28;20049;-60
2024/02/14 03:58:42;;;;;;;1.05;0.90;;;;;;;;;;5025704;28;20041;-60
2024/02/14 04:01:11;;;;;;;2.00;1.10;;;;;;;;;;5027891;28;20050;-60
2024/02/14 04:03:40;;;;;;;0.90;0.90;;;;;;;;;;5025752;28;20069;-60
2024/02/14 04:06:08;;;;;;;2.03;0.88;;;;;;;;;;5022728;28;20053;-60
2024/02/14 04:08:38;;;;;;;1.42;1.10;;;;;;;;;;5025125;28;20667;-59
2024/02/14 04:11:06;;;;;;;1.25;1.02;;;;;;;;;;5029109;28;20490;-60
2024/02/14 04:13:35;;;;;;;1.35;0.95;;;;;;;;;;5028638;28;20049;-59
2024/02/14 04:16:03;;;;;;;1.23;1.05;;;;;;;;;;5035527;28;20474;-60
2024/02/14 04:18:32;;;;;;;1.23;1.10;;;;;;;;;;5026292;28;20052;-59
2024/02/14 04:21:01;;;;;;;1.42;1.08;;;;;;;;;;5018024;28;20045;-59
2024/02/14 04:23:29;;;;;;;3.00;1.08;;;;;;;;;;5026874;28;20124;-59
2024/02/14 04:25:59;;;;;;;2.17;1.15;;;;;;;;;;5024580;28;20312;-61
2024/02/14 04:28:27;;;;;;;1.75;1.10;;;;;;;;;;5023786;28;20050;-59
2024/02/14 04:30:56;;;;;;;1.00;0.82;;;;;;;;;;5025979;28;20499;-61
2024/02/14 04:33:25;;;;;;;1.50;0.90;;;;;;;;;;5028461;28;20552;-59
2024/02/14 04:35:54;;;;;;;1.63;1.00;;;;;;;;;;5026379;28;20402;-58
2024/02/14 04:38:23;;;;;;;1.45;1.00;;;;;;;;;;5024812;28;20080;-60
2024/02/14 04:40:52;;;;;;;2.45;1.20;;;;;;;;;;5026925;28;20062;-59
2024/02/14 04:43:21;;;;;;;2.97;1.00;;;;;;;;;;5031627;28;20045;-59
2024/02/14 04:45:50;;;;;;;3.00;1.00;;;;;;;;;;5027108;28;20042;-61
2024/02/14 04:48:19;;;;;;;0.70;0.70;;;;;;;;;;5030980;28;20049;-60
2024/02/14 04:50:47;;;;;;;2.58;0.82;;;;;;;;;;5030363;28;20045;-61
2024/02/14 04:53:17;;;;;;;1.75;0.90;;;;;;;;;;5031535;28;20136;-64
2024/02/14 04:55:45;;;;;;;1.40;0.88;;;;;;;;;;5031882;28;20529;-61
2024/02/14 04:58:13;;;;;;;1.95;0.73;;;;;;;;;;5030287;28;20053;-61
2024/02/14 05:00:43;;;;;;;1.23;1.10;;;;;;;;;;5031081;28;20111;-61
2024/02/14 05:03:11;;;;;;;1.05;0.95;;;;;;;;;;5031154;28;20081;-60
2024/02/14 05:05:40;;;;;;;2.33;0.90;;;;;;;;;;5031772;28;20072;-61
2024/02/14 05:08:08;;;;;;;1.67;1.00;;;;;;;;;;5032211;28;20353;-61
2024/02/14 05:10:37;;;;;;;1.60;0.98;;;;;;;;;;5028254;28;20063;-64
2024/02/14 05:13:06;;;;;;;3.05;1.23;;;;;;;;;;5031924;28;20096;-61
2024/02/14 05:15:35;;;;;;;1.02;0.93;;;;;;;;;;5030287;28;20054;-60
2024/02/14 05:18:05;;;;;;;1.10;0.90;;;;;;;;;;5031082;28;20048;-62
2024/02/14 05:20:34;;;;;;;1.15;1.00;;;;;;;;;;5029115;28;20053;-62
2024/02/14 05:23:03;;;;;;;1.92;0.90;;;;;;;;;;5027915;28;20671;-64
2024/02/14 05:25:32;;;;;;;1.23;0.90;;;;;;;;;;5030044;28;20057;-61
2024/02/14 05:28:01;;;;;;;1.23;0.95;;;;;;;;;;5026425;28;20090;-64
2024/02/14 05:30:29;;;;;;;1.10;0.85;;;;;;;;;;5029514;28;20137;-62
2024/02/14 05:32:58;;;;;;;3.80;0.90;;;;;;;;;;5030423;28;20053;-63
2024/02/14 05:35:27;;;;;;;2.85;0.80;;;;;;;;;;5031482;28;20511;-62
2024/02/14 05:37:56;;;;;;;2.25;0.70;;;;;;;;;;5031058;28;20143;-61
2024/02/14 05:40:24;;;;;;;1.40;0.80;;;;;;;;;;5029924;28;20107;-62
2024/02/14 05:42:53;;;;;;;1.23;0.90;;;;;;;;;;5029869;28;20431;-63
2024/02/14 05:45:21;;;;;;;1.05;0.85;;;;;;;;;;5029404;28;20329;-63
2024/02/14 05:47:49;;;;;;;0.77;0.77;;;;;;;;;;5029401;28;20049;-61
2024/02/14 05:50:19;;;;;;;0.80;0.80;;;;;;;;;;5029850;28;20136;-63
2024/02/14 05:52:48;;;;;;;1.15;0.93;;;;;;;;;;5029937;28;20438;-61
2024/02/14 05:55:17;;;;;;;1.13;0.90;;;;;;;;;;5029143;28;20537;-62
2024/02/14 05:57:45;;;;;;;2.00;0.93;;;;;;;;;;5030002;28;20049;-62
2024/02/14 06:00:14;;;;;;;1.70;0.90;;;;;;;;;;5028914;28;20053;-62
2024/02/14 06:02:42;;;;;;;0.80;0.80;;;;;;;;;;5029412;28;20038;-64
2024/02/14 06:05:11;;;;;;;0.85;0.80;;;;;;;;;;5027266;28;20392;-61
2024/02/14 06:07:40;;;;;;;1.35;1.00;;;;;;;;;;5030265;28;20046;-62
2024/02/14 06:10:10;;;;;;;0.80;0.80;;;;;;;;;;5029588;28;20057;-63
2024/02/14 06:12:40;;;;;;;0.98;0.90;;;;;;;;;;5030201;28;20514;-61
2024/02/14 06:15:09;;;;;;;4.07;1.20;;;;;;;;;;5029624;28;20057;-62
2024/02/14 06:17:38;;;;;;;2.10;1.13;;;;;;;;;;5024486;28;20053;-65
2024/02/14 06:20:08;;;;;;;1.55;1.25;;;;;;;;;;5027916;28;20136;-62
2024/02/14 06:22:36;;;;;;;1.05;0.88;;;;;;;;;;5026804;28;20467;-63
2024/02/14 06:25:16;;;;;;;1.58;1.17;;;;;;;;;;5028146;28;20081;-62
2024/02/14 06:27:45;;;;;;;1.90;1.23;;;;;;;;;;5026162;28;20041;-63
2024/02/14 06:30:14;;;;;;;1.00;0.90;;;;;;;;;;5027317;28;20053;-63
2024/02/14 06:32:42;;;;;;;1.05;0.95;;;;;;;;;;5027697;28;20068;-62
2024/02/14 06:35:11;;;;;;;2.25;1.30;;;;;;;;;;5027401;28;20430;-62
2024/02/14 06:37:40;;;;;;;1.65;1.05;;;;;;;;;;5026798;28;20045;-62
2024/02/14 06:40:24;;;;;;;2.95;1.15;;;;;;;;;;5019951;28;20057;-64
2024/02/14 06:42:54;;;;;;;1.13;1.00;;;;;;;;;;5025558;28;20164;-65
2024/02/14 06:45:23;;;;;;;2.00;1.27;;;;;;;;;;5025253;28;20089;-62
2024/02/14 06:47:51;;;;;;;2.08;1.10;;;;;;;;;;5028183;28;20041;-62
2024/02/14 06:50:20;;;;;;;1.33;0.80;;;;;;;;;;5026944;28;20050;-61
2024/02/14 06:52:48;;;;;;;2.22;1.20;;;;;;;;;;5027605;28;20230;-62
2024/02/14 06:55:16;;;;;;;3.45;1.10;;;;;;;;;;5032680;28;20049;-62
2024/02/14 06:57:46;;;;;;;1.00;1.00;;;;;;;;;;5027447;28;20048;-63
2024/02/14 07:00:15;;;;;;;0.90;0.90;;;;;;;;;;5026511;28;20506;-62
2024/02/14 07:02:47;;;;;;;0.98;0.80;;;;;;;;;;5026063;28;20057;-62
2024/02/14 07:05:15;;;;;;;3.03;1.15;;;;;;;;;;5025327;28;20103;-62
2024/02/14 07:07:43;;;;;;;1.75;1.05;;;;;;;;;;5026866;28;20057;-63
2024/02/14 07:10:12;;;;;;;2.42;1.45;;;;;;;;;;5027720;28;20057;-63
2024/02/14 07:12:41;;;;;;;1.17;0.82;;;;;;;;;;5027307;28;20045;-62
2024/02/14 07:15:11;;;;;;;4.28;1.30;;;;;;;;;;5027675;28;20135;-61
2024/02/14 07:17:39;;;;;;;3.00;1.30;;;;;;;;;;5026357;28;20068;-62
2024/02/14 07:20:09;;;;;;;1.48;1.05;;;;;;;;;;5027451;28;20057;-63
2024/02/14 07:22:37;;;;;;;2.05;1.20;;;;;;;;;;5027186;28;20143;-62
2024/02/14 07:25:07;;;;;;;2.35;0.93;;;;;;;;;;5024512;28;20052;-61
2024/02/14 07:27:36;;;;;;;2.25;1.20;;;;;;;;;;5023014;28;20124;-61
2024/02/14 07:30:05;;;;;;;3.78;1.23;;;;;;;;;;5026725;28;20053;-62
2024/02/14 07:32:35;;;;;;;3.25;1.48;;;;;;;;;;5027287;28;20057;-63
2024/02/14 07:35:04;;;;;;;1.83;1.42;;;;;;;;;;5028999;28;20060;-61
2024/02/14 07:37:33;;;;;;;2.30;1.33;;;;;;;;;;5024773;28;20054;-63
2024/02/14 07:40:01;;;;;;;8.32;1.67;;;;;;;;;;5028278;28;20073;-62
2024/02/14 07:42:30;;;;;;;5.38;1.45;;;;;;;;;;5028839;28;20053;-61
2024/02/14 07:44:59;;;;;;;3.25;1.55;;;;;;;;;;5028150;28;20049;-63
2024/02/14 07:47:28;;;;;;;2.75;1.58;;;;;;;;;;5028940;28;20053;-62
2024/02/14 07:49:58;;;;;;;2.65;1.42;;;;;;;;;;5025903;28;20148;-62
2024/02/14 07:52:28;;;;;;;1.20;1.10;;;;;;;;;;5029890;28;20049;-61
2024/02/14 07:54:57;;;;;;;3.67;1.50;;;;;;;;;;5027809;28;20042;-63
2024/02/14 07:57:25;;;;;;;1.70;1.10;;;;;;;;;;5029192;28;20130;-63
2024/02/14 07:59:54;;;;;;;2.20;1.40;;;;;;;;;;5027161;28;20046;-64
2024/02/14 08:02:22;;;;;;;1.95;1.20;;;;;;;;;;5029452;28;20084;-62
2024/02/14 08:04:51;;;;;;;4.10;1.20;;;;;;;;;;5029436;28;20050;-62
2024/02/14 08:07:22;;;;;;;2.15;1.23;;;;;;;;;;5029163;28;20056;-63
2024/02/14 08:09:50;;;;;;;2.30;1.30;;;;;;;;;;5031787;28;20492;-62
2024/02/14 08:12:18;;;;;;;5.68;1.52;;;;;;;;;;5028904;28;20072;-63
2024/02/14 08:14:47;;;;;;;1.52;1.00;;;;;;;;;;5029155;28;20119;-62
2024/02/14 08:17:16;;;;;;;5.18;0.93;;;;;;;;;;5031438;28;20056;-63
2024/02/14 08:19:44;;;;;;;3.10;1.23;;;;;;;;;;5030782;28;20068;-62
2024/02/14 08:22:13;;;;;;;1.33;1.00;;;;;;;;;;5030936;28;20140;-62
2024/02/14 08:24:43;;;;;;;1.23;1.10;;;;;;;;;;5029989;28;20045;-63
2024/02/14 08:27:11;;;;;;;1.42;1.00;;;;;;;;;;5031048;28;20064;-62
2024/02/14 08:29:40;;;;;;;1.83;1.00;;;;;;;;;;5030453;28;20053;-63
2024/02/14 08:32:11;;;;;;;4.85;1.17;;;;;;;;;;5019361;28;20111;-64
2024/02/14 08:34:40;;;;;;;6.25;1.10;;;;;;;;;;5030646;28;20046;-63
2024/02/14 08:37:10;;;;;;;2.03;0.98;;;;;;;;;;5031182;28;20060;-63
2024/02/14 08:39:38;;;;;;;1.85;1.00;;;;;;;;;;5030366;28;20099;-62
2024/02/14 08:42:09;;;;;;;1.35;1.05;;;;;;;;;;5031300;28;20132;-63
2024/02/14 08:44:38;;;;;;;4.07;0.80;;;;;;;;;;5030082;28;20107;-63
2024/02/14 08:47:08;;;;;;;3.67;1.15;;;;;;;;;;5027294;28;20096;-64
2024/02/14 08:49:37;;;;;;;1.40;0.93;;;;;;;;;;5027645;28;20407;-62
2024/02/14 08:52:06;;;;;;;1.42;1.00;;;;;;;;;;5031112;28;20103;-63
2024/02/14 08:54:34;;;;;;;1.77;0.90;;;;;;;;;;5029774;28;20104;-65
2024/02/14 08:57:03;;;;;;;5.82;1.20;;;;;;;;;;5030730;28;20141;-62
2024/02/14 08:59:33;;;;;;;2.10;1.00;;;;;;;;;;5028870;28;20054;-64
2024/02/14 09:02:02;;;;;;;2.08;0.90;;;;;;;;;;5029711;28;20049;-64
2024/02/14 09:04:31;;;;;;;3.15;1.10;;;;;;;;;;5037792;28;20080;-63
2024/02/14 09:06:59;;;;;;;1.48;0.93;;;;;;;;;;5028393;28;20054;-62
2024/02/14 09:09:28;;;;;;;1.10;0.88;;;;;;;;;;5019719;28;20123;-63
2024/02/14 09:11:56;;;;;;;1.13;0.85;;;;;;;;;;5023363;28;20046;-63
2024/02/14 09:14:25;;;;;;;0.95;0.80;;;;;;;;;;5028890;28;20042;-63
2024/02/14 09:16:56;;;;;;;1.35;0.88;;;;;;;;;;5032115;28;20057;-63
2024/02/14 09:19:25;;;;;;;2.17;0.95;;;;;;;;;;5028775;28;20049;-62
2024/02/14 09:21:53;;;;;;;0.93;0.70;;;;;;;;;;5028902;28;20053;-62
2024/02/14 09:24:22;;;;;;;5.05;1.08;;;;;;;;;;5027942;28;20132;-64
2024/02/14 09:26:50;;;;;;;2.00;0.90;;;;;;;;;;5028271;28;20053;-64
2024/02/14 09:29:18;;;;;;;2.50;0.75;;;;;;;;;;5028025;28;20042;-62
2024/02/14 09:31:48;;;;;;;1.45;0.90;;;;;;;;;;5033145;28;20102;-63
2024/02/14 09:34:20;;;;;;;1.38;0.80;;;;;;;;;;5036167;28;20182;-63
2024/02/14 09:36:50;;;;;;;1.02;0.90;;;;;;;;;;5026373;28;20422;-62
2024/02/14 09:39:18;;;;;;;2.10;0.85;;;;;;;;;;5024810;28;20128;-64
2024/02/14 09:41:54;;;;;;;4.25;2.25;;;;;;;;;;5029446;28;20057;-63
2024/02/14 09:44:23;;;;;;;2.08;0.98;;;;;;;;;;5028316;28;20502;-62
2024/02/14 09:46:52;;;;;;;0.65;0.65;;;;;;;;;;5028779;28;20052;-64
2024/02/14 09:49:22;;;;;;;0.85;0.82;;;;;;;;;;5023940;28;20706;-63
2024/02/14 09:51:51;;;;;;;2.70;0.93;;;;;;;;;;5026205;28;20330;-63
2024/02/14 09:54:19;;;;;;;1.02;0.77;;;;;;;;;;5028517;28;20057;-63
2024/02/14 09:56:50;;;;;;;0.68;0.60;;;;;;;;;;5031243;28;20057;-64
2024/02/14 09:59:19;;;;;;;2.22;0.90;;;;;;;;;;5026561;28;20045;-63
2024/02/14 10:01:47;;;;;;;0.82;0.70;;;;;;;;;;5028858;28;20053;-63
2024/02/14 10:04:17;;;;;;;2.30;0.68;;;;;;;;;;5029512;28;20116;-63
2024/02/14 10:06:48;;;;;;;1.73;0.70;;;;;;;;;;4988292;28;1238914;-62
2024/02/14 10:09:20;;;;;;;1.48;0.82;;;;;;;;;;5029634;28;20045;-63
2024/02/14 10:11:48;;;;;;;3.63;0.77;;;;;;;;;;5030963;28;20052;-63
2024/02/14 10:14:17;;;;;;;0.70;0.70;;;;;;;;;;5030048;28;20081;-63
2024/02/14 10:16:45;;;;;;;1.40;0.73;;;;;;;;;;5028712;28;20053;-62
2024/02/14 10:19:17;;;;;;;2.33;0.60;;;;;;;;;;5032363;28;20498;-62
2024/02/14 10:21:58;;;;;;;0.85;0.60;;;;;;;;;;5031054;28;20593;-63
2024/02/14 10:24:27;;;;;;;1.00;0.70;;;;;;;;;;5030127;28;20095;-63
2024/02/14 10:26:57;;;;;;;0.65;0.52;;;;;;;;;;5030225;28;20124;-63
2024/02/14 10:29:26;;;;;;;2.03;0.90;;;;;;;;;;5027193;28;20042;-63
2024/02/14 10:31:54;;;;;;;1.15;0.70;;;;;;;;;;5030711;28;20057;-62
2024/02/14 10:34:26;;;;;;;0.95;0.63;;;;;;;;;;5030345;28;20057;-63
2024/02/14 10:36:57;;;;;;;1.50;0.77;;;;;;;;;;5029412;28;20096;-64
2024/02/14 10:39:27;;;;;;;1.02;0.65;;;;;;;;;;5027118;28;20060;-63
2024/02/14 10:41:56;;;;;;;1.05;0.65;;;;;;;;;;5030566;28;20045;-63
2024/02/14 10:44:24;;;;;;;1.80;0.70;;;;;;;;;;5029777;28;20045;-63
2024/02/14 10:46:54;;;;;;;1.55;0.60;;;;;;;;;;5029461;28;20084;-63
2024/02/14 10:49:23;;;;;;;0.85;0.57;;;;;;;;;;5028608;28;20045;-64
2024/02/14 10:51:53;;;;;;;1.73;0.68;;;;;;;;;;5029650;28;20046;-64
2024/02/14 10:54:22;;;;;;;1.33;0.73;;;;;;;;;;5029645;28;20559;-62
2024/02/14 10:56:53;;;;;;;2.08;0.60;;;;;;;;;;5029348;28;20055;-63
2024/02/14 10:59:22;;;;;;;0.50;0.50;;;;;;;;;;5028236;28;20406;-63
2024/02/14 11:01:51;;;;;;;1.55;0.60;;;;;;;;;;5028410;28;20057;-64
2024/02/14 11:04:20;;;;;;;0.47;0.47;;;;;;;;;;5028549;28;20049;-66
2024/02/14 11:06:50;;;;;;;0.52;0.50;;;;;;;;;;5028609;28;20053;-63
2024/02/14 11:09:18;;;;;;;1.10;0.70;;;;;;;;;;5020671;28;20045;-64
2024/02/14 11:11:47;;;;;;;1.70;0.50;;;;;;;;;;5028030;28;20053;-63
2024/02/14 11:14:20;;;;;;;1.33;0.70;;;;;;;;;;5028529;28;20522;-64
2024/02/14 11:16:48;;;;;;;0.55;0.50;;;;;;;;;;5027217;28;20490;-62
2024/02/14 11:19:17;;;;;;;1.80;0.90;;;;;;;;;;5029082;28;20076;-63
2024/02/14 11:21:48;;;;;;;0.70;0.70;;;;;;;;;;5025882;28;20053;-64
2024/02/14 11:24:17;;;;;;;1.27;0.70;;;;;;;;;;5027273;28;20114;-64
2024/02/14 11:26:51;;;;;;;1.05;0.60;;;;;;;;;;5027351;28;20721;-62
2024/02/14 11:29:22;;;;;;;2.40;0.75;;;;;;;;;;5026151;28;20578;-62
2024/02/14 11:32:00;;;;;;;2.27;0.70;;;;;;;;;;5021742;28;20080;-62
2024/02/14 11:34:31;;;;;;;2.78;0.60;;;;;;;;;;5026348;28;20068;-63
2024/02/14 11:37:05;;;;;;;1.58;0.50;;;;;;;;;;5025365;28;20498;-64
2024/02/14 11:39:34;;;;;;;0.88;0.65;;;;;;;;;;5026787;28;20046;-63
2024/02/14 11:42:03;;;;;;;0.75;0.50;;;;;;;;;;5028188;28;20402;-62
2024/02/14 11:44:32;;;;;;;0.60;0.60;;;;;;;;;;5024949;28;20130;-63
2024/02/14 11:47:02;;;;;;;0.43;0.43;;;;;;;;;;5026786;28;20050;-64
2024/02/14 11:49:30;;;;;;;0.65;0.50;;;;;;;;;;5025516;28;20335;-64
2024/02/14 11:51:59;;;;;;;2.78;0.70;;;;;;;;;;5025138;28;20045;-65
2024/02/14 11:54:27;;;;;;;0.60;0.50;;;;;;;;;;5027647;28;20126;-63
2024/02/14 11:56:55;;;;;;;0.60;0.50;;;;;;;;;;5027214;28;20045;-62
2024/02/14 11:59:24;;;;;;;0.32;0.32;;;;;;;;;;5025745;28;20455;-65
2024/02/14 12:01:57;;;;;;;1.10;0.70;;;;;;;;;;5026320;28;20049;-64
2024/02/14 12:04:26;;;;;;;1.17;0.52;;;;;;;;;;5027892;28;20053;-63
2024/02/14 12:06:55;;;;;;;3.08;0.60;;;;;;;;;;5025245;28;20057;-63
2024/02/14 12:09:24;;;;;;;1.00;0.60;;;;;;;;;;5026853;28;20375;-63
2024/02/14 12:11:54;;;;;;;0.80;0.73;;;;;;;;;;5027316;28;20047;-65
2024/02/14 12:14:25;;;;;;;0.50;0.40;;;;;;;;;;5025711;28;20071;-63
2024/02/14 12:16:57;;;;;;;0.82;0.50;;;;;;;;;;5025637;28;20570;-65
2024/02/14 12:19:26;;;;;;;0.90;0.50;;;;;;;;;;5026018;28;20104;-63
2024/02/14 12:22:01;;;;;;;4.90;0.80;;;;;;;;;;5026014;28;20053;-64
2024/02/14 12:24:30;;;;;;;0.70;0.65;;;;;;;;;;5027664;28;20041;-65
2024/02/14 12:26:58;;;;;;;3.03;0.50;;;;;;;;;;5025816;28;20049;-64
2024/02/14 12:29:27;;;;;;;1.40;0.70;;;;;;;;;;5034079;28;20087;-63
2024/02/14 12:32:06;;;;;;;0.93;0.60;;;;;;;;;;5026894;28;20119;-63
2024/02/14 12:34:35;;;;;;;1.38;0.60;;;;;;;;;;5027581;28;20053;-63
2024/02/14 12:37:05;;;;;;;0.40;0.40;;;;;;;;;;5024027;28;20046;-67
2024/02/14 12:39:33;;;;;;;0.82;0.60;;;;;;;;;;5024941;28;20482;-64
2024/02/14 12:42:02;;;;;;;0.57;0.40;;;;;;;;;;5027559;28;20560;-62
2024/02/14 12:44:31;;;;;;;0.50;0.50;;;;;;;;;;5024259;28;20041;-65
2024/02/14 12:46:59;;;;;;;0.95;0.40;;;;;;;;;;5024799;28;20041;-63
2024/02/14 12:49:31;;;;;;;0.80;0.65;;;;;;;;;;5025684;28;20124;-63
2024/02/14 12:52:00;;;;;;;0.60;0.60;;;;;;;;;;5026724;28;20438;-64
2024/02/14 12:54:28;;;;;;;0.70;0.55;;;;;;;;;;5025680;28;20061;-64
2024/02/14 12:56:57;;;;;;;1.05;0.70;;;;;;;;;;5026806;28;20054;-64
2024/02/14 12:59:25;;;;;;;0.82;0.50;;;;;;;;;;5026571;28;20049;-64
2024/02/14 13:01:53;;;;;;;0.55;0.55;;;;;;;;;;5027011;28;20045;-65
2024/02/14 13:04:22;;;;;;;1.35;0.52;;;;;;;;;;5027681;28;20830;-63
2024/02/14 13:06:53;;;;;;;0.50;0.50;;;;;;;;;;5031718;28;20065;-64
2024/02/14 13:09:21;;;;;;;1.25;0.60;;;;;;;;;;5029591;28;20084;-63
2024/02/14 13:11:50;;;;;;;0.95;0.68;;;;;;;;;;5020187;28;20415;-64
2024/02/14 13:14:18;;;;;;;1.00;0.50;;;;;;;;;;5030569;28;20089;-64
2024/02/14 13:16:46;;;;;;;0.40;0.40;;;;;;;;;;5030289;28;20049;-64
2024/02/14 13:19:15;;;;;;;0.88;0.63;;;;;;;;;;5027759;28;20072;-64
2024/02/14 13:21:47;;;;;;;2.75;0.50;;;;;;;;;;5031167;28;20151;-63
2024/02/14 13:24:18;;;;;;;1.25;0.55;;;;;;;;;;5031155;28;20045;-64
2024/02/14 13:26:47;;;;;;;0.50;0.43;;;;;;;;;;5031488;28;20054;-65
2024/02/14 13:29:17;;;;;;;1.50;0.70;;;;;;;;;;5029781;28;20049;-64
2024/02/14 13:31:46;;;;;;;1.10;0.68;;;;;;;;;;5031767;28;20068;-64
2024/02/14 13:34:15;;;;;;;1.08;0.63;;;;;;;;;;5031273;28;20053;-62
2024/02/14 13:36:44;;;;;;;1.27;0.60;;;;;;;;;;5020571;28;20451;-63
2024/02/14 13:39:13;;;;;;;0.70;0.50;;;;;;;;;;5029780;28;20470;-64
2024/02/14 13:41:44;;;;;;;0.60;0.55;;;;;;;;;;5029289;28;20065;-63
2024/02/14 13:44:13;;;;;;;0.70;0.52;;;;;;;;;;5031023;28;20041;-63
2024/02/14 13:46:45;;;;;;;1.75;0.68;;;;;;;;;;5029921;28;20045;-63
2024/02/14 13:49:17;;;;;;;4.22;1.33;;;;;;;;;;5029919;28;20045;-63
2024/02/14 13:51:47;;;;;;;1.02;0.70;;;;;;;;;;5030601;28;20414;-65
2024/02/14 13:54:15;;;;;;;2.20;0.60;;;;;;;;;;5030617;28;20183;-66
2024/02/14 13:56:46;;;;;;;0.68;0.60;;;;;;;;;;5031464;28;20073;-62
2024/02/14 13:59:14;;;;;;;3.10;0.65;;;;;;;;;;5030545;28;20132;-64
2024/02/14 14:01:42;;;;;;;0.95;0.40;;;;;;;;;;5029861;28;20045;-63
2024/02/14 14:04:12;;;;;;;0.65;0.65;;;;;;;;;;5030158;28;20126;-63
2024/02/14 14:06:40;;;;;;;1.90;0.98;;;;;;;;;;5030202;28;20115;-63
2024/02/14 14:09:10;;;;;;;0.85;0.85;;;;;;;;;;5030231;28;20561;-63
2024/02/14 14:11:39;;;;;;;0.85;0.57;;;;;;;;;;5028918;28;20445;-66
2024/02/14 14:14:15;;;;;;;0.40;0.40;;;;;;;;;;5029293;28;20107;-66
2024/02/14 14:16:44;;;;;;;0.70;0.45;;;;;;;;;;5029525;28;20049;-64
2024/02/14 14:19:13;;;;;;;0.70;0.60;;;;;;;;;;5030613;28;20073;-63
2024/02/14 14:21:42;;;;;;;0.70;0.60;;;;;;;;;;5029176;28;20053;-64
2024/02/14 14:24:10;;;;;;;0.98;0.60;;;;;;;;;;5028227;28;20127;-65
2024/02/14 14:26:39;;;;;;;0.60;0.50;;;;;;;;;;5023073;28;20049;-64
2024/02/14 14:29:08;;;;;;;2.38;0.63;;;;;;;;;;5029098;28;20053;-65
2024/02/14 14:31:38;;;;;;;0.57;0.57;;;;;;;;;;5030002;28;20471;-64
2024/02/14 14:34:07;;;;;;;1.45;0.50;;;;;;;;;;5022279;28;20069;-63
2024/02/14 14:36:37;;;;;;;1.77;0.80;;;;;;;;;;5028163;28;20405;-64
2024/02/14 14:39:06;;;;;;;0.73;0.50;;;;;;;;;;5027911;28;20044;-65
2024/02/14 14:41:34;;;;;;;1.42;0.60;;;;;;;;;;5029139;28;20473;-65
2024/02/14 14:44:03;;;;;;;0.80;0.60;;;;;;;;;;5029281;28;20042;-63
2024/02/14 14:46:32;;;;;;;0.68;0.50;;;;;;;;;;5030055;28;20053;-63
2024/02/14 14:49:03;;;;;;;3.33;0.68;;;;;;;;;;5029630;28;20041;-64
2024/02/14 14:51:32;;;;;;;0.70;0.70;;;;;;;;;;5029424;28;20054;-65
2024/02/14 14:54:00;;;;;;;3.95;0.70;;;;;;;;;;5027189;28;20509;-65